Time;durP1;ratioP1;P1;durP2;ratioP2;P2;SDS_P1;SDS_P2;PMS_P1;PMS_P2;Temp;Humidity;BMP_temperature;BMP_pressure;BME280_temperature;BME280_humidity;BME280_pressure;Samples;Min_cycle;Max_cycle;Signal;HPM_P1;HPM_P2
2021/10/15 00:00:48;;;;;;;6.25;3.80;;;;;;;8.95;80.67;100423.59;2007479;87;21001;-82
2021/10/15 00:03:50;;;;;;;3.90;3.00;;;;;;;8.97;80.69;100415.48;2009108;87;21108;-80
2021/10/15 00:06:51;;;;;;;6.90;3.77;;;;;;;8.98;80.70;100414.02;2012452;87;21005;-82
2021/10/15 00:09:53;;;;;;;5.55;3.62;;;;;;;8.96;80.67;100419.13;2010055;87;21049;-81
2021/10/15 00:12:54;;;;;;;3.85;2.87;;;;;;;8.92;80.74;100415.09;2010248;87;21049;-82
2021/10/15 00:15:56;;;;;;;6.35;3.75;;;;;;;8.91;80.80;100406.33;2014250;87;21013;-82
2021/10/15 00:18:57;;;;;;;6.05;3.00;;;;;;;8.92;80.77;100413.27;2011166;87;20998;-82
2021/10/15 00:21:59;;;;;;;4.67;3.12;;;;;;;8.93;80.76;100407.02;2009505;87;21611;-80
2021/10/15 00:25:04;;;;;;;5.25;3.40;;;;;;;8.97;80.75;100415.48;2009457;87;21001;-82
2021/10/15 00:28:06;;;;;;;3.72;3.30;;;;;;;8.98;80.75;100408.73;2010266;87;21069;-81
2021/10/15 00:31:07;;;;;;;5.60;3.25;;;;;;;8.98;80.72;100405.23;2010327;87;21104;-81
2021/10/15 00:34:09;;;;;;;5.50;3.58;;;;;;;9.00;80.80;100396.66;2009931;87;21022;-81
2021/10/15 00:37:10;;;;;;;5.42;3.25;;;;;;;9.00;80.85;100394.50;2009678;87;21059;-81
2021/10/15 00:40:12;;;;;;;5.05;2.90;;;;;;;9.00;80.79;100399.80;2010880;87;20995;-81
2021/10/15 00:43:14;;;;;;;4.05;2.98;;;;;;;9.00;80.78;100394.01;2010129;87;21093;-82
2021/10/15 00:46:16;;;;;;;4.40;3.05;;;;;;;9.00;80.87;100390.03;2011227;87;21501;-82
2021/10/15 00:49:17;;;;;;;5.05;2.35;;;;;;;9.01;80.82;100386.89;2019293;87;21097;-82
2021/10/15 00:52:19;;;;;;;4.30;3.00;;;;;;;9.03;80.94;100386.27;2022088;87;21067;-82
2021/10/15 00:55:20;;;;;;;4.33;2.70;;;;;;;9.04;81.00;100390.09;2025749;87;21100;-82
2021/10/15 00:58:22;;;;;;;5.35;3.60;;;;;;;9.06;80.94;100388.61;2022928;87;21399;-81
2021/10/15 01:01:24;;;;;;;4.15;3.08;;;;;;;9.07;81.01;100381.02;2022781;87;20997;-81
2021/10/15 01:04:25;;;;;;;5.12;2.92;;;;;;;9.09;81.05;100375.89;2021514;87;21097;-82
2021/10/15 01:07:29;;;;;;;6.12;3.30;;;;;;;9.13;81.00;100384.39;2027173;87;21043;-82
2021/10/15 01:10:30;;;;;;;5.12;3.42;;;;;;;9.12;81.03;100374.30;2019310;87;21079;-82
2021/10/15 01:13:34;;;;;;;4.03;3.25;;;;;;;9.13;80.98;100371.16;2017096;87;21025;-82
2021/10/15 01:16:35;;;;;;;5.00;3.67;;;;;;;9.14;81.02;100363.54;2022832;87;21010;-82
2021/10/15 01:19:37;;;;;;;4.95;3.83;;;;;;;9.15;81.00;100366.52;2022564;87;21001;-81
2021/10/15 01:22:38;;;;;;;4.75;3.77;;;;;;;9.19;81.02;100366.56;2024242;87;21760;-82
2021/10/15 01:25:40;;;;;;;8.25;4.78;;;;;;;9.22;81.03;100368.08;2022503;86;21092;-82
2021/10/15 01:28:41;;;;;;;5.35;4.65;;;;;;;9.24;80.99;100361.66;2021167;87;21076;-82
2021/10/15 01:31:43;;;;;;;6.95;4.75;;;;;;;9.28;80.99;100362.17;2018900;87;20987;-82
2021/10/15 01:34:46;;;;;;;7.22;5.05;;;;;;;9.28;80.95;100357.70;2021974;87;21045;-81
2021/10/15 01:37:47;;;;;;;7.17;5.85;;;;;;;9.28;81.01;100363.00;2023837;87;21017;-81
2021/10/15 01:40:49;;;;;;;7.75;5.08;;;;;;;9.27;81.00;100356.05;2020077;87;21012;-82
2021/10/15 01:43:50;;;;;;;7.28;5.33;;;;;;;9.28;80.98;100356.88;2022932;87;21147;-82
2021/10/15 01:46:52;;;;;;;10.23;6.08;;;;;;;9.28;80.96;100356.38;2023768;87;21021;-82
2021/10/15 01:49:54;;;;;;;8.28;6.22;;;;;;;9.27;81.03;100352.58;2026326;87;21113;-81
2021/10/15 01:52:56;;;;;;;8.28;6.60;;;;;;;9.29;81.01;100350.13;2022699;87;21065;-81
2021/10/15 01:55:58;;;;;;;8.13;6.85;;;;;;;9.32;80.93;100347.16;2022349;87;21713;-81
2021/10/15 01:59:00;;;;;;;8.93;6.90;;;;;;;9.34;80.98;100348.32;2022543;87;20953;-82
2021/10/15 02:02:01;;;;;;;9.95;7.22;;;;;;;9.31;80.99;100346.80;2022521;87;21578;-82
2021/10/15 02:05:06;;;;;;;8.50;6.53;;;;;;;9.30;81.01;100346.48;2024296;86;21539;-81
2021/10/15 02:08:07;;;;;;;9.10;7.42;;;;;;;9.31;81.12;100340.69;2022032;87;21635;-81
2021/10/15 02:11:09;;;;;;;8.30;6.50;;;;;;;9.29;81.04;100338.20;2023675;87;21522;-81
2021/10/15 02:14:10;;;;;;;9.63;7.08;;;;;;;9.29;81.00;100334.70;2022958;87;20986;-82
2021/10/15 02:17:13;;;;;;;9.78;7.37;;;;;;;9.29;81.05;100338.20;2025113;87;21128;-81
2021/10/15 02:20:16;;;;;;;8.03;6.95;;;;;;;9.30;81.07;100337.21;2023254;87;21029;-81
2021/10/15 02:23:17;;;;;;;11.33;8.83;;;;;;;9.32;81.07;100337.89;2023279;87;21598;-81
2021/10/15 02:26:20;;;;;;;10.68;8.48;;;;;;;9.31;81.07;100333.56;2022101;87;21105;-81
2021/10/15 02:29:22;;;;;;;10.48;8.40;;;;;;;9.34;81.25;100333.25;2023479;87;21036;-81
2021/10/15 02:32:23;;;;;;;10.98;8.50;;;;;;;9.31;81.09;100340.19;2023104;87;21028;-81
2021/10/15 02:35:25;;;;;;;12.68;8.35;;;;;;;9.30;81.17;100331.91;2019610;86;21100;-82
2021/10/15 02:38:27;;;;;;;12.50;7.72;;;;;;;9.32;81.20;100337.04;2025822;87;20986;-81
2021/10/15 02:41:28;;;;;;;10.38;7.78;;;;;;;9.33;81.18;100333.42;2020457;87;21036;-82
2021/10/15 02:44:30;;;;;;;10.28;8.15;;;;;;;9.33;81.26;100336.08;2022632;87;21518;-81
2021/10/15 02:47:31;;;;;;;11.45;8.45;;;;;;;9.32;81.23;100333.92;2023808;87;21088;-81
2021/10/15 02:50:33;;;;;;;12.28;9.33;;;;;;;9.34;81.27;100331.94;2019301;87;20958;-81
2021/10/15 02:53:34;;;;;;;11.45;8.90;;;;;;;9.35;81.23;100329.64;2023415;87;21044;-81
2021/10/15 02:56:35;;;;;;;10.98;8.95;;;;;;;9.35;81.25;100324.34;2027258;87;20974;-81
2021/10/15 02:59:37;;;;;;;11.05;9.20;;;;;;;9.34;81.28;100322.66;2019408;87;21476;-81
2021/10/15 03:02:38;;;;;;;10.35;8.33;;;;;;;9.32;81.36;100317.17;2019394;87;21052;-81
2021/10/15 03:05:40;;;;;;;11.10;9.05;;;;;;;9.28;81.35;100317.98;2021976;87;21009;-81
2021/10/15 03:08:41;;;;;;;10.60;8.25;;;;;;;9.22;81.31;100323.91;2022153;87;21013;-82
2021/10/15 03:11:43;;;;;;;10.98;8.75;;;;;;;9.23;81.45;100322.91;2025525;87;21100;-81
2021/10/15 03:14:44;;;;;;;11.35;8.68;;;;;;;9.19;81.50;100322.89;2020666;87;21108;-81
2021/10/15 03:17:45;;;;;;;14.78;8.70;;;;;;;9.21;81.63;100316.95;2019651;87;21000;-81
2021/10/15 03:20:47;;;;;;;9.93;8.08;;;;;;;9.21;81.75;100314.30;2022479;87;21044;-79
2021/10/15 03:23:49;;;;;;;16.57;9.05;;;;;;;9.23;81.68;100310.98;2017542;87;21021;-80
2021/10/15 03:26:51;;;;;;;13.38;9.88;;;;;;;9.24;81.69;100307.87;2021129;87;21084;-80
2021/10/15 03:29:52;;;;;;;13.00;9.58;;;;;;;9.20;81.60;100301.53;2021634;87;20980;-81
2021/10/15 03:32:54;;;;;;;12.25;9.43;;;;;;;9.17;81.68;100307.63;2018703;87;21029;-81
2021/10/15 03:35:55;;;;;;;11.88;8.45;;;;;;;9.15;81.76;100301.66;2019929;87;21009;-81
2021/10/15 03:38:57;;;;;;;11.55;9.23;;;;;;;9.13;81.72;100301.00;2020437;87;21040;-81
2021/10/15 03:41:58;;;;;;;13.43;9.48;;;;;;;9.11;81.79;100304.28;2022407;87;21005;-81
2021/10/15 03:45:00;;;;;;;10.72;8.85;;;;;;;9.13;81.89;100301.00;2023106;87;21053;-81
2021/10/15 03:48:02;;;;;;;12.40;9.50;;;;;;;9.13;81.89;100295.20;2021977;87;21044;-82
2021/10/15 03:51:03;;;;;;;11.05;9.15;;;;;;;9.14;81.92;100296.86;2022186;87;21881;-83
2021/10/15 03:54:05;;;;;;;14.18;9.55;;;;;;;9.17;82.00;100297.87;2024414;87;21077;-83
2021/10/15 03:57:06;;;;;;;13.80;10.68;;;;;;;9.19;81.87;100300.38;2017478;87;21032;-84
2021/10/15 04:00:29;;;;;;;13.70;10.32;;;;;;;9.20;81.82;100294.09;2023647;87;21468;-85
2021/10/15 04:03:31;;;;;;;14.28;10.75;;;;;;;9.21;81.80;100294.45;2081040;83;21009;-78
2021/10/15 04:06:32;;;;;;;14.87;9.63;;;;;;;9.23;81.74;100295.60;2084471;83;21087;-76
2021/10/15 04:09:34;;;;;;;13.65;9.90;;;;;;;9.23;81.74;100293.78;2082304;83;20980;-77
2021/10/15 04:12:36;;;;;;;11.73;8.88;;;;;;;9.24;81.74;100290.16;2084664;82;21086;-80
2021/10/15 04:15:38;;;;;;;14.85;10.15;;;;;;;9.25;81.62;100294.47;2078466;83;21489;-78
2021/10/15 04:18:39;;;;;;;13.38;10.15;;;;;;;9.25;81.58;100289.17;2082212;83;21530;-78
2021/10/15 04:21:40;;;;;;;13.05;10.80;;;;;;;9.25;81.57;100286.52;2084041;83;20985;-79
2021/10/15 04:24:42;;;;;;;13.10;9.98;;;;;;;9.28;81.56;100287.54;2080332;83;21064;-77
2021/10/15 04:27:44;;;;;;;14.43;11.15;;;;;;;9.26;81.51;100284.70;2089172;83;21101;-78
2021/10/15 04:30:47;;;;;;;15.00;11.83;;;;;;;9.25;81.52;100293.14;2085520;83;20994;-78
2021/10/15 04:33:48;;;;;;;14.40;11.48;;;;;;;9.25;81.54;100289.67;2081938;83;21033;-78
2021/10/15 04:36:50;;;;;;;13.48;10.80;;;;;;;9.23;81.56;100279.22;2087797;83;20968;-76
2021/10/15 04:39:51;;;;;;;15.38;11.35;;;;;;;9.22;81.52;100283.36;2078862;83;21530;-79
2021/10/15 04:42:53;;;;;;;13.20;10.23;;;;;;;9.17;81.45;100277.19;2093703;83;21600;-79
2021/10/15 04:45:54;;;;;;;15.40;11.33;;;;;;;9.13;81.52;100276.67;2080061;83;21085;-78
2021/10/15 04:48:56;;;;;;;21.17;13.55;;;;;;;9.15;81.58;100275.18;2082796;83;20981;-77
2021/10/15 04:51:57;;;;;;;18.20;12.60;;;;;;;9.13;81.51;100270.55;2083137;83;21027;-76
2021/10/15 04:54:59;;;;;;;17.45;12.30;;;;;;;9.10;81.48;100271.69;2086211;83;21051;-77
2021/10/15 04:58:00;;;;;;;15.10;11.88;;;;;;;9.06;81.54;100259.73;2087735;83;21024;-81
2021/10/15 05:01:02;;;;;;;14.98;12.43;;;;;;;9.04;81.60;100251.60;2087676;82;21147;-79
2021/10/15 05:04:04;;;;;;;16.25;12.35;;;;;;;9.00;81.56;100257.70;2095991;83;21073;-77
2021/10/15 05:07:05;;;;;;;16.00;11.93;;;;;;;8.95;81.65;100259.97;2112098;82;21017;-79
2021/10/15 05:10:09;;;;;;;15.08;11.78;;;;;;;8.94;81.69;100261.79;2116051;82;21059;-79
2021/10/15 05:13:13;;;;;;;15.55;12.58;;;;;;;8.92;81.76;100261.10;2110195;82;21498;-80
2021/10/15 05:16:14;;;;;;;17.42;12.78;;;;;;;8.91;81.78;100262.09;2095465;83;21041;-80
2021/10/15 05:19:16;;;;;;;17.37;14.18;;;;;;;8.90;81.89;100260.45;2119137;82;21043;-78
2021/10/15 05:22:17;;;;;;;17.62;13.98;;;;;;;8.92;82.01;100260.28;2114023;82;21482;-78
2021/10/15 05:25:18;;;;;;;20.72;15.60;;;;;;;8.94;82.06;100258.31;2115801;82;21043;-78
2021/10/15 05:28:20;;;;;;;22.15;16.65;;;;;;;8.97;82.12;100250.89;2113037;82;21005;-81
2021/10/15 05:31:21;;;;;;;23.95;15.68;;;;;;;8.98;82.12;100248.61;2108496;82;21437;-80
2021/10/15 05:34:23;;;;;;;16.75;13.95;;;;;;;9.08;82.56;100245.86;2108790;82;21034;-80
2021/10/15 05:37:24;;;;;;;16.48;14.07;;;;;;;9.19;82.31;100246.11;2108575;82;21027;-79
2021/10/15 05:40:26;;;;;;;18.52;14.43;;;;;;;9.19;82.09;100246.11;2119718;82;20942;-80
2021/10/15 05:43:27;;;;;;;18.52;13.98;;;;;;;9.25;82.10;100248.13;2113655;82;21469;-80
2021/10/15 05:46:29;;;;;;;17.95;14.00;;;;;;;9.34;82.09;100248.52;2107109;81;21478;-79
2021/10/15 05:49:32;;;;;;;17.45;13.53;;;;;;;9.37;81.80;100243.41;2111895;82;21046;-81
2021/10/15 05:52:37;;;;;;;16.10;13.18;;;;;;;9.36;81.61;100233.81;2105080;82;21097;-79
2021/10/15 05:58:51;;;;;;;18.55;14.98;;;;;;;9.35;81.53;100240.93;2113421;82;21024;-80
2021/10/15 06:01:57;;;;;;;18.98;14.75;;;;;;;9.32;81.45;100221.85;2110650;82;21041;-80
2021/10/15 06:05:38;;;;;;;15.65;13.20;;;;;;;9.28;81.25;100220.02;2123725;82;21052;-82
2021/10/15 06:14:40;;;;;;;17.52;13.65;;;;;;;9.18;81.42;100233.87;2120110;82;21053;-82
2021/10/15 06:17:46;;;;;;;13.93;11.43;;;;;;;9.39;81.76;100237.47;2124801;82;21513;-80
2021/10/15 06:20:48;;;;;;;14.15;11.53;;;;;;;9.61;81.47;100228.16;2119664;82;20973;-80
2021/10/15 06:23:50;;;;;;;15.48;12.23;;;;;;;9.96;81.49;100230.30;2117451;82;20985;-82
2021/10/15 06:26:51;;;;;;;15.78;12.63;;;;;;;10.27;81.04;100235.89;2123941;82;20985;-80
2021/10/15 06:29:53;;;;;;;15.18;12.15;;;;;;;10.56;80.79;100224.86;2124141;82;22246;-81
2021/10/15 06:32:54;;;;;;;15.48;12.43;;;;;;;10.87;80.31;100236.14;2120900;82;20974;-81
2021/10/15 06:35:56;;;;;;;15.25;12.50;;;;;;;11.08;79.45;100235.65;2120621;82;21005;-79
2021/10/15 06:38:57;;;;;;;12.98;11.15;;;;;;;11.42;79.41;100224.30;2125039;82;21589;-80
2021/10/15 06:41:59;;;;;;;14.63;11.50;;;;;;;11.76;78.29;100220.55;2121593;82;21009;-82
2021/10/15 06:45:01;;;;;;;13.68;11.93;;;;;;;11.87;77.75;100225.52;2122351;82;20986;-82
2021/10/15 06:48:03;;;;;;;13.38;11.83;;;;;;;12.01;77.47;100225.30;2128476;82;21501;-81
2021/10/15 06:51:04;;;;;;;13.32;11.93;;;;;;;12.13;77.19;100218.26;2119339;82;21017;-79
2021/10/15 06:54:06;;;;;;;14.83;12.65;;;;;;;12.30;76.26;100210.51;2120859;82;21651;-81
2021/10/15 06:57:07;;;;;;;13.25;10.93;;;;;;;12.60;75.54;100214.14;2121390;82;21484;-80
2021/10/15 07:00:10;;;;;;;16.77;11.28;;;;;;;12.78;75.16;100220.48;2120461;82;20944;-81
2021/10/15 07:03:19;;;;;;;14.38;10.93;;;;;;;13.09;75.26;100222.23;2119690;82;21069;-80
2021/10/15 07:06:21;;;;;;;14.60;12.07;;;;;;;13.29;74.49;100222.09;2116099;82;21484;-80
2021/10/15 07:09:22;;;;;;;13.32;11.88;;;;;;;13.16;74.00;100219.18;2121634;82;20990;-81
2021/10/15 07:12:24;;;;;;;15.32;12.58;;;;;;;13.07;73.29;100213.61;2121798;82;21501;-79
2021/10/15 07:15:26;;;;;;;14.10;11.75;;;;;;;13.24;73.59;100216.44;2120315;82;21450;-79
2021/10/15 07:18:27;;;;;;;13.43;10.90;;;;;;;13.57;72.92;100202.78;2122962;82;20985;-77
2021/10/15 07:21:29;;;;;;;12.43;10.03;;;;;;;13.78;71.91;100205.54;2123685;82;20996;-77
2021/10/15 07:24:30;;;;;;;15.08;11.33;;;;;;;13.98;71.50;100211.63;2121097;82;20958;-77
2021/10/15 07:27:31;;;;;;;12.37;11.08;;;;;;;14.10;70.40;100208.80;2117458;82;20981;-78
2021/10/15 07:30:33;;;;;;;14.28;12.23;;;;;;;14.16;70.73;100209.38;2121015;82;21548;-77
2021/10/15 07:33:35;;;;;;;12.60;11.05;;;;;;;14.26;69.84;100209.09;2119930;82;21034;-80
2021/10/15 07:36:37;;;;;;;13.65;11.73;;;;;;;14.12;67.65;100195.59;2118495;82;20982;-79
2021/10/15 07:39:38;;;;;;;13.15;11.53;;;;;;;14.02;69.41;100198.23;2120430;82;21056;-79
2021/10/15 07:42:40;;;;;;;13.65;11.80;;;;;;;14.21;69.77;100202.97;2119542;82;21042;-79
2021/10/15 07:45:41;;;;;;;11.75;10.53;;;;;;;14.56;69.07;100201.33;2072278;85;21472;-78
2021/10/15 07:48:43;;;;;;;13.13;10.35;;;;;;;14.69;67.92;100207.28;2040424;86;21081;-77
2021/10/15 07:51:45;;;;;;;13.53;10.98;;;;;;;14.83;68.66;100209.57;2070656;85;21091;-78
2021/10/15 07:54:47;;;;;;;11.22;10.00;;;;;;;14.97;68.06;100202.50;2120219;82;21007;-77
2021/10/15 07:57:49;;;;;;;12.23;10.82;;;;;;;15.04;67.09;100192.70;2117396;82;21010;-78
2021/10/15 08:00:51;;;;;;;11.73;10.53;;;;;;;15.15;67.14;100192.17;2123249;82;21031;-78
2021/10/15 08:03:53;;;;;;;13.88;10.82;;;;;;;15.23;66.59;100187.16;2104742;83;21002;-77
2021/10/15 08:06:55;;;;;;;13.05;11.00;;;;;;;15.29;66.99;100189.56;2101039;83;21016;-77
2021/10/15 08:09:56;;;;;;;11.48;10.20;;;;;;;15.21;65.67;100186.03;2101940;83;21482;-76
2021/10/15 08:13:00;;;;;;;12.13;10.82;;;;;;;15.25;65.51;100184.61;2090889;84;20984;-77
2021/10/15 08:16:01;;;;;;;12.03;10.72;;;;;;;15.43;65.84;100179.30;2093284;84;21018;-78
2021/10/15 08:19:03;;;;;;;10.75;9.65;;;;;;;15.65;65.49;100178.18;2099976;83;21089;-76
2021/10/15 08:22:06;;;;;;;10.53;9.53;;;;;;;15.74;64.86;100175.34;2084382;84;21016;-78
2021/10/15 08:25:09;;;;;;;11.35;10.25;;;;;;;15.83;64.40;100170.98;2094752;83;21061;-79
2021/10/15 08:28:10;;;;;;;11.60;8.88;;;;;;;15.83;62.99;100176.33;2098290;83;21553;-76
2021/10/15 08:31:14;;;;;;;10.23;8.98;;;;;;;15.79;63.17;100176.39;2101665;83;21013;-77
2021/10/15 08:34:17;;;;;;;9.15;8.28;;;;;;;15.82;63.38;100181.86;2103647;83;20986;-79
2021/10/15 08:37:19;;;;;;;9.70;8.70;;;;;;;15.80;62.75;100175.39;2098914;83;21093;-80
2021/10/15 08:40:21;;;;;;;9.15;8.18;;;;;;;16.00;63.41;100172.79;2096366;83;20994;-80
2021/10/15 08:43:38;;;;;;;11.33;9.18;;;;;;;16.10;62.08;100159.83;2099976;83;21049;-79
2021/10/15 08:46:40;;;;;;;8.65;7.83;;;;;;;16.18;62.62;100164.70;2100482;83;20976;-80
2021/10/15 08:49:44;;;;;;;11.57;8.45;;;;;;;16.29;61.58;100151.55;2102952;83;21009;-79
2021/10/15 08:52:45;;;;;;;8.38;7.58;;;;;;;16.29;61.09;100148.05;2099452;84;20994;-80
2021/10/15 08:55:47;;;;;;;8.53;7.72;;;;;;;16.41;61.51;100146.41;2099864;83;21016;-80
2021/10/15 08:58:54;;;;;;;8.68;7.78;;;;;;;16.51;61.08;100145.50;2100544;84;21003;-81
2021/10/15 09:01:58;;;;;;;9.13;7.92;;;;;;;16.60;60.04;100127.38;2099802;83;21014;-79
2021/10/15 09:04:59;;;;;;;9.88;8.30;;;;;;;16.62;60.42;100137.38;2095183;83;20984;-80
2021/10/15 09:08:01;;;;;;;8.68;7.85;;;;;;;16.70;60.14;100131.00;2092652;84;21572;-80
2021/10/15 09:11:03;;;;;;;8.20;7.33;;;;;;;16.78;60.37;100125.43;2093531;83;21828;-79
2021/10/15 09:14:15;;;;;;;7.62;6.87;;;;;;;17.10;60.44;100131.80;2088941;83;21018;-79
2021/10/15 09:17:31;;;;;;;8.73;7.78;;;;;;;17.33;59.70;100128.65;2096591;83;21154;-78
2021/10/15 09:20:35;;;;;;;8.05;7.25;;;;;;;17.36;58.75;100124.20;2091333;83;20989;-78
2021/10/15 09:23:48;;;;;;;7.62;6.80;;;;;;;17.34;58.12;100119.56;2100099;83;20998;-78
2021/10/15 09:26:49;;;;;;;8.00;6.97;;;;;;;17.18;56.85;100115.50;2096265;83;20994;-79
2021/10/15 09:30:05;;;;;;;7.08;6.05;;;;;;;17.11;58.46;100111.17;2100671;83;21505;-78
2021/10/15 09:33:08;;;;;;;6.72;5.90;;;;;;;17.26;57.46;100119.81;2090402;83;21032;-80
2021/10/15 09:36:10;;;;;;;10.08;7.40;;;;;;;17.37;56.87;100125.02;2080293;83;21037;-78
2021/10/15 09:39:25;;;;;;;8.10;6.83;;;;;;;17.41;56.52;100122.23;2092063;83;21039;-80
2021/10/15 09:42:30;;;;;;;6.15;5.20;;;;;;;17.52;57.57;100116.74;2100445;83;20939;-81
2021/10/15 09:45:39;;;;;;;6.05;5.45;;;;;;;17.83;56.52;100118.70;2096977;83;21039;-80
2021/10/15 09:48:44;;;;;;;6.05;5.40;;;;;;;17.89;56.24;100109.78;2095769;84;20965;-79
2021/10/15 09:51:51;;;;;;;4.95;4.33;;;;;;;17.64;54.18;100107.80;2080084;83;21583;-80
2021/10/15 09:54:59;;;;;;;6.47;5.25;;;;;;;17.22;55.09;100114.03;2093883;83;21447;-80
2021/10/15 09:58:19;;;;;;;4.97;4.47;;;;;;;17.00;55.67;100108.09;2094278;83;21522;-80
2021/10/15 10:01:21;;;;;;;4.83;4.43;;;;;;;16.78;56.08;100107.52;2090329;83;20966;-80
2021/10/15 10:04:22;;;;;;;5.20;4.70;;;;;;;16.44;54.46;100103.14;2081194;83;21717;-79
2021/10/15 10:07:24;;;;;;;5.83;4.37;;;;;;;16.10;55.34;100102.28;2086757;84;21014;-78
2021/10/15 10:10:30;;;;;;;5.33;4.83;;;;;;;16.19;55.59;100100.75;2088291;84;20935;-79
2021/10/15 10:13:31;;;;;;;5.95;5.05;;;;;;;16.46;55.82;100097.08;2045682;86;21057;-78
2021/10/15 10:16:34;;;;;;;5.20;4.70;;;;;;;16.73;55.08;100089.05;2085956;84;20991;-78
2021/10/15 10:19:39;;;;;;;5.80;5.28;;;;;;;16.91;55.58;100088.43;2081449;84;21075;-79
2021/10/15 10:23:20;;;;;;;6.15;5.45;;;;;;;17.19;55.08;100087.64;2079660;84;21041;-78
2021/10/15 10:26:22;;;;;;;8.68;4.85;;;;;;;17.19;54.64;100076.91;2078440;84;21479;-79
2021/10/15 10:29:25;;;;;;;5.05;4.55;;;;;;;17.31;54.45;100069.55;2079131;84;21314;-78
2021/10/15 10:32:28;;;;;;;7.22;4.30;;;;;;;17.40;53.12;100061.08;2080160;84;20979;-79
2021/10/15 10:35:30;;;;;;;4.80;4.40;;;;;;;17.45;53.40;100062.58;2079279;84;20983;-80
2021/10/15 10:38:32;;;;;;;7.55;4.75;;;;;;;17.52;54.03;100051.84;2082684;84;21082;-80
2021/10/15 10:41:33;;;;;;;4.50;4.10;;;;;;;17.50;53.11;100057.92;2085372;83;21017;-80
2021/10/15 10:44:52;;;;;;;5.33;4.20;;;;;;;17.50;52.50;100052.56;2083387;84;21021;-77
2021/10/15 10:48:07;;;;;;;4.35;3.83;;;;;;;17.41;52.24;100047.96;2079394;84;21046;-79
2021/10/15 10:51:12;;;;;;;5.40;3.60;;;;;;;17.35;52.64;100054.18;2083589;83;21054;-79
2021/10/15 10:54:26;;;;;;;5.60;4.30;;;;;;;17.40;52.71;100051.69;2074669;84;20978;-80
2021/10/15 10:57:31;;;;;;;4.15;3.75;;;;;;;17.44;51.74;100051.55;2051931;84;20951;-80
2021/10/15 11:00:32;;;;;;;5.67;3.77;;;;;;;17.27;51.08;100038.33;2075146;84;20994;-79
2021/10/15 11:03:34;;;;;;;3.90;3.50;;;;;;;17.09;51.46;100035.00;2083398;83;20975;-78
2021/10/15 11:07:01;;;;;;;5.40;4.30;;;;;;;16.88;51.91;100036.08;2087681;84;20971;-80
2021/10/15 11:10:06;;;;;;;4.72;4.08;;;;;;;16.87;51.96;100029.08;2075633;84;21584;-80
2021/10/15 11:13:08;;;;;;;4.40;3.27;;;;;;;16.85;52.55;100019.08;2081554;84;20959;-79
2021/10/15 11:16:21;;;;;;;5.35;3.72;;;;;;;16.61;52.18;100018.37;2112461;83;21012;-80
2021/10/15 11:19:23;;;;;;;4.12;3.35;;;;;;;16.30;52.18;100017.16;2120708;82;21188;-79
2021/10/15 11:22:25;;;;;;;4.20;3.67;;;;;;;16.20;52.05;100015.42;2116056;83;20988;-77
2021/10/15 11:25:40;;;;;;;4.47;3.47;;;;;;;16.24;52.95;100019.33;2119219;82;21032;-79
2021/10/15 11:28:42;;;;;;;5.35;3.52;;;;;;;16.41;52.97;100017.88;2122200;83;21009;-81
2021/10/15 11:31:54;;;;;;;5.50;3.80;;;;;;;16.57;52.64;100012.09;2118157;83;21029;-81
2021/10/15 11:35:23;;;;;;;4.75;3.80;;;;;;;16.71;52.59;100001.36;2118361;82;21036;-80
2021/10/15 11:38:27;;;;;;;4.00;3.30;;;;;;;16.79;52.30;99997.15;2120379;83;21000;-80
2021/10/15 11:41:28;;;;;;;4.00;3.12;;;;;;;16.86;52.40;99993.09;2120177;83;21010;-77
2021/10/15 11:44:36;;;;;;;4.30;3.45;;;;;;;16.69;52.04;99989.50;2113953;83;20980;-81
2021/10/15 11:47:37;;;;;;;5.65;4.10;;;;;;;16.49;52.06;99988.20;2117464;83;21016;-80
2021/10/15 11:51:01;;;;;;;4.33;3.58;;;;;;;16.18;51.94;99991.52;2119054;83;21551;-80
2021/10/15 11:54:03;;;;;;;5.37;3.42;;;;;;;15.92;52.68;99987.00;2091900;83;21588;-80
2021/10/15 11:57:04;;;;;;;2.50;2.30;;;;;;;15.76;52.83;99990.06;2118135;83;20964;-80
2021/10/15 12:00:10;;;;;;;4.92;2.92;;;;;;;15.61;53.13;99986.20;2118539;82;21111;-81
2021/10/15 12:03:18;;;;;;;4.08;2.95;;;;;;;15.43;53.73;99984.94;2118201;82;21091;-81
2021/10/15 12:06:39;;;;;;;5.15;2.95;;;;;;;15.34;54.08;99983.97;2117208;82;21061;-80
2021/10/15 12:09:40;;;;;;;;;;;;;;;15.23;54.31;99974.67;2122958;82;21022;-79
2021/10/15 12:12:42;;;;;;;3.20;3.00;;;;;;;15.16;54.49;99969.84;2120571;82;20298;-78
2021/10/15 12:15:43;;;;;;;5.08;3.00;;;;;;;15.08;54.63;99971.34;2115741;82;20982;-81
2021/10/15 12:18:46;;;;;;;3.20;2.90;;;;;;;15.07;55.12;99969.19;2108356;82;21126;-80
2021/10/15 12:21:59;;;;;;;6.10;4.22;;;;;;;15.11;55.50;99961.07;2097529;82;21071;-81
2021/10/15 12:25:02;;;;;;;6.50;3.45;;;;;;;15.14;55.43;99959.33;2114568;82;21070;-79
2021/10/15 12:28:14;;;;;;;4.78;3.20;;;;;;;15.25;55.41;99956.59;2116215;82;21048;-80
2021/10/15 12:31:34;;;;;;;3.67;3.37;;;;;;;15.42;55.68;99958.39;2113693;82;21026;-81
2021/10/15 12:35:04;;;;;;;4.83;3.42;;;;;;;15.54;55.31;99951.44;2115328;82;21057;-80
2021/10/15 12:38:06;;;;;;;3.58;3.17;;;;;;;15.37;55.73;99942.13;2111934;82;20976;-79
2021/10/15 12:41:07;;;;;;;4.58;3.10;;;;;;;15.37;55.73;99942.13;2118114;82;21129;-81
2021/10/15 12:44:31;;;;;;;3.35;3.00;;;;;;;15.19;55.66;99950.20;2108336;82;21489;-81
2021/10/15 12:47:32;;;;;;;4.75;3.45;;;;;;;15.07;55.95;99953.16;2110861;82;20987;-81
2021/10/15 12:50:39;;;;;;;3.70;3.27;;;;;;;14.98;56.23;99949.02;2111622;82;20956;-79
2021/10/15 12:53:50;;;;;;;4.25;3.30;;;;;;;14.94;56.55;99945.89;2116801;82;21092;-80
2021/10/15 12:56:52;;;;;;;3.15;2.85;;;;;;;15.00;57.10;99949.62;2114120;82;21035;-80
2021/10/15 13:00:04;;;;;;;4.00;3.00;;;;;;;15.07;57.16;99942.47;2108607;82;21004;-80
2021/10/15 13:03:07;;;;;;;4.12;3.60;;;;;;;15.07;57.38;99941.64;2117876;82;21244;-80
2021/10/15 13:06:09;;;;;;;4.03;3.20;;;;;;;15.05;57.80;99938.34;2120830;82;21558;-81
2021/10/15 13:09:11;;;;;;;2.77;2.58;;;;;;;15.06;57.42;99934.64;2122982;82;21522;-80
2021/10/15 13:12:12;;;;;;;2.95;2.62;;;;;;;15.04;57.51;99926.84;2124641;82;21029;-81
2021/10/15 13:15:17;;;;;;;5.67;2.70;;;;;;;14.96;57.29;99929.16;2124379;82;21117;-82
2021/10/15 13:18:19;;;;;;;5.33;2.62;;;;;;;14.89;57.39;99932.83;2118599;82;20974;-81
2021/10/15 13:21:20;;;;;;;4.22;2.77;;;;;;;14.79;57.35;99935.36;2117074;82;21017;-80
2021/10/15 13:24:22;;;;;;;2.70;2.50;;;;;;;14.73;57.76;99929.48;2120590;82;20982;-82
2021/10/15 13:27:24;;;;;;;4.08;3.17;;;;;;;14.70;57.85;99922.39;2119370;82;20990;-80
2021/10/15 13:30:26;;;;;;;4.47;3.65;;;;;;;14.69;58.12;99924.21;2122354;82;21475;-81
2021/10/15 13:33:28;;;;;;;3.67;3.30;;;;;;;14.65;58.29;99924.31;2128382;82;22628;-83
2021/10/15 13:36:31;;;;;;;6.10;2.85;;;;;;;14.60;58.52;99916.58;2115748;82;21007;-79
2021/10/15 13:39:33;;;;;;;4.12;2.80;;;;;;;14.53;58.61;99927.23;2127839;82;21037;-81
2021/10/15 13:43:04;;;;;;;2.58;2.37;;;;;;;14.45;58.91;99922.84;2124835;82;21015;-81
2021/10/15 13:46:01;;;;;;;3.40;2.58;;;;;;;14.38;58.90;99917.14;2117421;82;20986;-80
2021/10/15 13:52:19;;;;;;;5.17;2.58;;;;;;;14.21;59.30;99905.43;2126252;81;21494;-80
2021/10/15 13:55:20;;;;;;;3.35;2.60;;;;;;;14.23;59.59;99900.73;2124381;81;21023;-79
2021/10/15 13:58:27;;;;;;;3.67;3.12;;;;;;;14.25;59.50;99903.22;2116139;82;21625;-78
2021/10/15 14:01:34;;;;;;;3.62;2.55;;;;;;;14.29;59.21;99898.61;2117004;82;21051;-79
2021/10/15 14:04:38;;;;;;;2.95;2.52;;;;;;;14.27;59.17;99896.64;2119837;82;21013;-80
2021/10/15 14:07:36;;;;;;;4.83;2.47;;;;;;;14.25;59.10;99900.03;2123304;82;20962;-80
2021/10/15 14:10:41;;;;;;;4.50;2.87;;;;;;;14.23;59.11;99895.39;2123309;82;21045;-81
2021/10/15 14:13:43;;;;;;;4.20;2.65;;;;;;;14.18;59.26;99905.83;2117575;82;21679;-82
2021/10/15 14:16:44;;;;;;;3.17;2.75;;;;;;;14.17;59.24;99900.19;2118420;82;21065;-82
2021/10/15 14:19:46;;;;;;;8.85;3.30;;;;;;;14.13;59.55;99905.58;2128721;82;20988;-84
2021/10/15 14:22:47;;;;;;;3.85;2.80;;;;;;;14.09;59.69;99902.48;2122317;82;21002;-82
2021/10/15 14:25:49;;;;;;;5.65;2.52;;;;;;;14.06;59.77;99907.39;2122954;82;21022;-80